createdAt,value
2017-12-19T00:00:28.220Z,3.10
2017-12-19T00:03:03.076Z,3.00
2017-12-19T00:05:38.602Z,3.00
2017-12-19T00:08:12.644Z,3.00
2017-12-19T00:10:51.089Z,3.00
2017-12-19T00:13:25.003Z,3.10
2017-12-19T00:15:58.900Z,3.10
2017-12-19T00:18:35.793Z,3.10
2017-12-19T00:21:10.074Z,3.10
2017-12-19T00:24:00.565Z,3.10
2017-12-19T00:26:35.346Z,3.00
2017-12-19T00:29:09.763Z,3.00
2017-12-19T00:31:43.538Z,3.00
2017-12-19T00:34:18.452Z,3.00
2017-12-19T00:36:53.207Z,3.00
2017-12-19T00:39:31.332Z,3.00
2017-12-19T00:42:05.092Z,3.00
2017-12-19T00:44:38.959Z,3.00
2017-12-19T00:47:12.701Z,3.00
2017-12-19T00:49:46.369Z,3.00
2017-12-19T00:52:20.066Z,3.10
2017-12-19T00:54:54.189Z,3.10
2017-12-19T00:57:28.917Z,3.00
2017-12-19T01:00:05.094Z,3.00
2017-12-19T01:02:40.022Z,3.00
2017-12-19T01:05:13.651Z,3.10
2017-12-19T01:07:47.215Z,3.10
2017-12-19T01:10:22.521Z,3.10
2017-12-19T01:12:56.697Z,3.10
2017-12-19T01:15:34.332Z,3.10
2017-12-19T01:18:08.797Z,3.10
2017-12-19T01:20:43.077Z,3.00
2017-12-19T01:23:18.928Z,3.00
2017-12-19T01:25:53.848Z,3.00
2017-12-19T01:28:27.571Z,3.00
2017-12-19T01:31:01.649Z,3.00
2017-12-19T01:33:37.013Z,3.00
2017-12-19T01:36:10.652Z,2.90
2017-12-19T01:38:48.443Z,3.00
2017-12-19T01:41:29.121Z,3.00
2017-12-19T01:44:03.903Z,3.00
2017-12-19T01:46:37.682Z,2.90
2017-12-19T01:49:11.526Z,3.00
2017-12-19T01:51:45.285Z,3.00
2017-12-19T01:54:19.076Z,2.90
2017-12-19T01:56:52.636Z,2.90
2017-12-19T01:59:26.716Z,2.90
2017-12-19T02:02:01.446Z,2.90
2017-12-19T02:04:35.275Z,2.90
2017-12-19T02:07:09.166Z,3.00
2017-12-19T02:09:42.929Z,2.90
2017-12-19T02:12:17.193Z,2.80
2017-12-19T02:14:51.025Z,2.80
2017-12-19T02:17:24.704Z,2.90
2017-12-19T02:20:01.440Z,2.80
2017-12-19T02:22:35.002Z,2.80
2017-12-19T02:31:14.303Z,2.80
2017-12-19T02:33:49.225Z,2.80
2017-12-19T02:36:23.213Z,2.70
2017-12-19T02:38:57.169Z,2.70
2017-12-19T02:41:31.032Z,2.60
2017-12-19T02:44:04.783Z,2.60
2017-12-19T02:46:38.548Z,2.60
2017-12-19T02:49:12.767Z,2.60
2017-12-19T02:51:48.871Z,2.60
2017-12-19T02:54:23.252Z,2.50
2017-12-19T02:56:58.432Z,2.50
2017-12-19T02:59:32.974Z,2.40
2017-12-19T03:02:07.393Z,2.50
2017-12-19T03:04:41.173Z,2.50
2017-12-19T03:07:15.229Z,2.40
2017-12-19T03:09:50.417Z,2.50
2017-12-19T03:12:26.684Z,2.50
2017-12-19T03:15:01.972Z,2.50
2017-12-19T03:17:36.374Z,2.50
2017-12-19T03:20:13.358Z,2.50
2017-12-19T03:22:49.006Z,2.50
2017-12-19T03:25:27.790Z,2.50
2017-12-19T03:28:02.677Z,2.40
2017-12-19T03:30:37.254Z,2.40
2017-12-19T03:33:11.449Z,2.50
2017-12-19T03:35:45.593Z,2.50
2017-12-19T03:38:20.556Z,2.50
2017-12-19T03:40:54.772Z,2.60
2017-12-19T03:43:28.778Z,2.60
2017-12-19T03:46:02.850Z,2.60
2017-12-19T03:48:36.725Z,2.60
2017-12-19T03:51:11.236Z,2.60
2017-12-19T03:53:45.894Z,2.60
2017-12-19T03:56:21.316Z,2.60
2017-12-19T03:58:55.279Z,2.60
2017-12-19T04:01:30.124Z,2.60
2017-12-19T04:04:05.093Z,2.60
2017-12-19T04:06:38.971Z,2.60
2017-12-19T04:09:12.796Z,2.60
2017-12-19T04:11:47.313Z,2.60
2017-12-19T04:14:21.113Z,2.60
2017-12-19T04:16:55.790Z,2.60
2017-12-19T04:19:29.808Z,2.60
2017-12-19T04:22:04.641Z,2.60
2017-12-19T04:24:38.704Z,2.60
2017-12-19T04:27:13.965Z,2.60
2017-12-19T04:29:48.208Z,2.70
2017-12-19T04:32:22.843Z,2.70
2017-12-19T04:34:56.946Z,2.80
2017-12-19T04:37:30.676Z,2.70
2017-12-19T04:40:05.252Z,2.80
2017-12-19T04:42:39.991Z,2.80
2017-12-19T04:45:14.704Z,2.80
2017-12-19T04:47:49.863Z,2.70
2017-12-19T04:50:27.557Z,2.70
2017-12-19T04:53:01.757Z,2.70
2017-12-19T04:55:35.606Z,2.70
2017-12-19T04:58:12.461Z,2.80
2017-12-19T05:00:47.311Z,2.70
2017-12-19T05:03:21.625Z,2.80
2017-12-19T05:05:56.347Z,2.80
2017-12-19T05:08:31.574Z,2.80
2017-12-19T05:11:06.151Z,2.80
2017-12-19T05:13:40.696Z,2.80
2017-12-19T05:16:16.313Z,2.70
2017-12-19T05:18:50.652Z,2.80
2017-12-19T05:21:24.608Z,2.80
2017-12-19T05:23:58.697Z,2.80
2017-12-19T05:26:33.248Z,2.80
2017-12-19T05:29:07.323Z,2.80
2017-12-19T05:31:41.995Z,2.80
2017-12-19T05:34:16.609Z,2.80
2017-12-19T05:39:32.806Z,2.90
2017-12-19T05:42:06.686Z,2.90
2017-12-19T05:44:40.772Z,2.90
2017-12-19T05:47:14.478Z,2.80
2017-12-19T05:49:48.288Z,2.80
2017-12-19T05:52:22.950Z,2.90
2017-12-19T05:54:58.071Z,2.90
2017-12-19T05:57:32.027Z,2.90
2017-12-19T06:00:05.903Z,2.90
2017-12-19T06:02:40.665Z,2.90
2017-12-19T06:05:16.069Z,3.00
2017-12-19T06:07:49.751Z,3.00
2017-12-19T06:10:24.379Z,3.00
2017-12-19T06:12:58.152Z,3.00
2017-12-19T06:15:32.879Z,3.00
2017-12-19T06:18:08.438Z,3.10
2017-12-19T06:20:42.421Z,3.10
2017-12-19T06:23:16.271Z,3.10
2017-12-19T06:25:49.988Z,3.10
2017-12-19T06:28:23.840Z,3.10
2017-12-19T06:30:58.597Z,3.10
2017-12-19T06:33:32.449Z,3.10
2017-12-19T06:36:06.288Z,3.10
2017-12-19T06:38:40.164Z,3.10
2017-12-19T06:41:13.972Z,3.10
2017-12-19T06:43:47.668Z,3.10
2017-12-19T06:46:22.324Z,3.20
2017-12-19T06:48:57.032Z,3.10
2017-12-19T06:51:32.539Z,3.10
2017-12-19T06:54:07.114Z,3.20
2017-12-19T06:56:42.338Z,3.30
2017-12-19T06:59:17.344Z,3.30
2017-12-19T07:01:53.566Z,3.30
2017-12-19T07:04:28.117Z,3.30
2017-12-19T07:09:41.841Z,3.40
2017-12-19T07:12:15.584Z,3.40
2017-12-19T07:17:28.741Z,3.40
2017-12-19T07:20:03.134Z,3.40
2017-12-19T07:22:38.274Z,3.50
2017-12-19T07:25:12.883Z,3.50
2017-12-19T07:33:06.782Z,3.50
2017-12-19T07:35:44.524Z,3.50
2017-12-19T07:38:24.031Z,3.50
2017-12-19T07:41:00.994Z,3.50
2017-12-19T07:43:36.168Z,3.50
2017-12-19T07:46:11.023Z,3.50
2017-12-19T07:48:47.189Z,3.50
2017-12-19T07:51:22.224Z,3.50
2017-12-19T07:53:56.680Z,3.60
2017-12-19T07:56:31.973Z,3.60
2017-12-19T07:59:07.370Z,3.60
2017-12-19T08:01:42.655Z,3.60
2017-12-19T08:07:04.209Z,3.60
2017-12-19T08:12:31.977Z,3.60
2017-12-19T08:17:54.514Z,3.60
2017-12-19T08:20:29.950Z,3.70
2017-12-19T08:23:08.592Z,3.80
2017-12-19T08:25:44.661Z,3.80
2017-12-19T08:28:19.806Z,3.80
2017-12-19T08:30:55.813Z,3.80
2017-12-19T08:33:31.118Z,3.80
2017-12-19T08:36:07.685Z,3.70
2017-12-19T08:38:43.508Z,3.70
2017-12-19T08:41:18.525Z,3.70
2017-12-19T08:43:53.950Z,3.80
2017-12-19T08:46:32.820Z,3.80
2017-12-19T08:49:09.466Z,3.80
2017-12-19T08:51:47.740Z,3.80
2017-12-19T08:57:03.544Z,3.90
2017-12-19T08:59:41.179Z,3.90
2017-12-19T09:02:19.441Z,3.90
2017-12-19T09:04:53.790Z,3.90
2017-12-19T09:10:15.136Z,3.90
2017-12-19T09:12:49.037Z,3.90
2017-12-19T09:15:28.206Z,4.00
2017-12-19T09:18:06.209Z,4.00
2017-12-19T09:26:09.842Z,4.00
2017-12-19T09:28:46.943Z,4.00
2017-12-19T09:31:25.531Z,4.00
2017-12-19T09:34:00.456Z,4.10
2017-12-19T09:36:34.863Z,4.10
2017-12-19T09:39:12.508Z,4.10
2017-12-19T09:41:46.073Z,4.20
2017-12-19T09:44:23.144Z,4.20
2017-12-19T09:46:57.117Z,4.30
2017-12-19T09:49:34.026Z,4.30
2017-12-19T09:52:10.825Z,4.30
2017-12-19T09:54:45.576Z,4.30
2017-12-19T09:57:24.315Z,4.40
2017-12-19T09:59:59.616Z,4.40
2017-12-19T10:02:38.053Z,4.50
2017-12-19T10:05:17.195Z,4.60
2017-12-19T10:07:55.240Z,4.50
2017-12-19T10:10:30.540Z,4.50
2017-12-19T10:13:04.199Z,4.50
2017-12-19T10:15:40.002Z,4.60
2017-12-19T10:18:15.126Z,4.60
2017-12-19T10:20:49.612Z,4.60
2017-12-19T10:23:25.525Z,4.70
2017-12-19T10:26:04.090Z,4.80
2017-12-19T10:28:37.921Z,4.80
2017-12-19T10:33:52.849Z,4.80
2017-12-19T10:36:27.133Z,4.90
2017-12-19T10:39:03.836Z,4.90
2017-12-19T10:44:25.383Z,4.80
2017-12-19T10:47:02.039Z,4.80
2017-12-19T10:52:16.270Z,4.70
2017-12-19T10:54:51.898Z,4.70
2017-12-19T11:00:05.012Z,4.70
2017-12-19T11:02:39.348Z,4.70
2017-12-19T11:05:13.363Z,4.80
2017-12-19T11:07:51.061Z,4.80
2017-12-19T11:10:26.161Z,4.80
2017-12-19T11:13:01.127Z,4.80
2017-12-19T11:15:36.001Z,5.00
2017-12-19T11:18:09.881Z,5.10
2017-12-19T11:20:43.686Z,5.00
2017-12-19T11:23:17.386Z,5.20
2017-12-19T11:25:52.174Z,5.20
2017-12-19T11:28:27.820Z,5.20
2017-12-19T11:31:01.630Z,5.10
2017-12-19T11:33:36.503Z,5.10
2017-12-19T11:36:11.499Z,5.20
2017-12-19T11:38:45.284Z,5.20
2017-12-19T11:41:24.717Z,5.30
2017-12-19T11:43:58.835Z,5.40
2017-12-19T11:46:32.726Z,5.30
2017-12-19T11:49:06.645Z,5.40
2017-12-19T11:54:20.846Z,5.40
2017-12-19T11:56:55.516Z,5.40
2017-12-19T11:59:29.104Z,5.40
2017-12-19T12:02:03.168Z,5.30
2017-12-19T12:04:38.418Z,5.30
2017-12-19T12:07:13.267Z,5.30
2017-12-19T12:09:47.002Z,5.30
2017-12-19T12:12:22.368Z,5.30
2017-12-19T12:14:56.146Z,5.30
2017-12-19T12:17:30.689Z,5.30
2017-12-19T12:20:06.053Z,5.30
2017-12-19T12:25:18.801Z,5.20
2017-12-19T12:27:53.716Z,5.20
2017-12-19T12:30:27.811Z,5.20
2017-12-19T12:33:01.383Z,5.20
2017-12-19T12:35:35.275Z,5.30
2017-12-19T12:38:09.825Z,5.30
2017-12-19T12:40:43.678Z,5.30
2017-12-19T12:43:18.406Z,5.20
2017-12-19T12:45:52.088Z,5.20
2017-12-19T12:48:29.796Z,5.30
2017-12-19T12:51:04.319Z,5.30
2017-12-19T12:53:38.754Z,5.30
2017-12-19T12:56:12.565Z,5.40
2017-12-19T13:07:23.253Z,5.60
2017-12-19T13:10:08.352Z,5.50
2017-12-19T13:18:21.638Z,5.60
2017-12-19T13:26:21.656Z,5.50
2017-12-19T13:41:09.348Z,5.40
2017-12-19T14:28:09.533Z,5.30
2017-12-19T14:30:43.566Z,5.30
2017-12-19T14:33:22.599Z,5.40
2017-12-19T14:38:59.106Z,5.40
2017-12-19T14:44:34.140Z,5.40
2017-12-19T14:47:10.506Z,5.40
2017-12-19T14:52:37.791Z,5.40
2017-12-19T14:55:16.074Z,5.40
2017-12-19T15:00:39.909Z,5.40
2017-12-19T15:03:36.531Z,5.40
2017-12-19T15:17:39.537Z,5.40
2017-12-19T15:20:13.373Z,5.40
2017-12-19T15:22:48.722Z,5.40
2017-12-19T15:25:25.625Z,5.40
2017-12-19T15:27:59.812Z,5.40
2017-12-19T15:30:33.588Z,5.40
2017-12-19T15:42:20.518Z,5.40
2017-12-19T15:45:10.780Z,5.40
2017-12-19T15:50:49.539Z,5.40
2017-12-19T15:53:27.788Z,5.40
2017-12-19T15:56:06.477Z,5.40
2017-12-19T15:58:42.528Z,5.40
2017-12-19T16:01:19.071Z,5.30
2017-12-19T16:03:56.784Z,5.30
2017-12-19T16:06:30.505Z,5.30
2017-12-19T16:09:05.965Z,5.40
2017-12-19T16:11:41.062Z,5.30
2017-12-19T16:14:16.580Z,5.30
2017-12-19T16:16:52.227Z,5.30
2017-12-19T16:19:26.847Z,5.30
2017-12-19T16:22:01.486Z,5.30
2017-12-19T16:24:36.684Z,5.30
2017-12-19T16:27:11.525Z,5.30
2017-12-19T16:29:46.030Z,5.30
2017-12-19T16:32:35.125Z,5.30
2017-12-19T16:35:09.016Z,5.30
2017-12-19T16:37:43.584Z,5.30
2017-12-19T16:40:17.165Z,5.30
2017-12-19T16:42:53.723Z,5.30
2017-12-19T16:45:30.089Z,5.30
2017-12-19T16:48:08.094Z,5.30
2017-12-19T16:50:42.106Z,5.30
2017-12-19T16:53:16.737Z,5.20
2017-12-19T16:55:50.896Z,5.30
2017-12-19T17:01:13.644Z,5.20
2017-12-19T17:06:30.243Z,5.20
2017-12-19T17:09:04.966Z,5.20
2017-12-19T17:14:17.992Z,5.20
2017-12-19T17:16:52.942Z,5.20
2017-12-19T17:19:30.433Z,5.20
2017-12-19T17:22:08.399Z,5.20
2017-12-19T17:24:43.182Z,5.20
2017-12-19T17:27:20.673Z,5.20
2017-12-19T17:29:54.472Z,5.20
2017-12-19T17:32:28.312Z,5.20
2017-12-19T17:35:02.659Z,5.20
2017-12-19T17:37:37.764Z,5.30
2017-12-19T17:40:11.602Z,5.30
2017-12-19T17:42:46.254Z,5.30
2017-12-19T17:45:20.732Z,5.30
2017-12-19T17:47:54.507Z,5.30
2017-12-19T17:50:32.238Z,5.30
2017-12-19T17:53:06.366Z,5.30
2017-12-19T17:55:40.432Z,5.30
2017-12-19T17:58:18.813Z,5.30
2017-12-19T18:00:53.432Z,5.30
2017-12-19T18:03:30.424Z,5.30
2017-12-19T18:06:04.925Z,5.30
2017-12-19T18:14:02.992Z,5.40
2017-12-19T18:16:39.456Z,5.40
2017-12-19T18:19:19.653Z,5.40
2017-12-19T18:21:54.003Z,5.40
2017-12-19T18:24:27.851Z,5.50
2017-12-19T18:27:03.779Z,5.50
2017-12-19T18:29:39.082Z,5.50
2017-12-19T18:32:15.137Z,5.50
2017-12-19T18:34:51.443Z,5.50
2017-12-19T18:46:23.376Z,5.50
2017-12-19T18:58:08.305Z,5.50
2017-12-19T19:08:41.501Z,5.50
2017-12-19T19:11:19.501Z,5.60
2017-12-19T19:14:02.070Z,5.50
2017-12-19T19:16:43.824Z,5.50
2017-12-19T19:19:22.208Z,5.40
2017-12-19T19:22:00.412Z,5.40
2017-12-19T19:24:40.079Z,5.40
2017-12-19T19:27:24.631Z,5.40
2017-12-19T19:30:02.834Z,5.40
2017-12-19T19:47:10.952Z,5.30
2017-12-19T19:49:46.614Z,5.30
2017-12-19T19:57:51.721Z,5.30
2017-12-19T20:00:30.436Z,5.30
2017-12-19T20:03:12.259Z,5.30
2017-12-19T20:05:52.520Z,5.20
2017-12-19T20:11:21.938Z,5.20
2017-12-19T20:14:01.298Z,5.20
2017-12-19T20:16:38.426Z,5.10
2017-12-19T20:19:17.518Z,5.20
2017-12-19T20:24:40.866Z,5.20
2017-12-19T20:38:32.704Z,5.20
2017-12-19T20:41:16.238Z,5.20
2017-12-19T20:43:51.839Z,5.20
2017-12-19T20:51:45.945Z,5.20
2017-12-19T20:59:54.919Z,5.30
2017-12-19T21:22:49.476Z,5.30
2017-12-19T21:28:34.969Z,5.30
2017-12-19T21:36:58.569Z,5.30
2017-12-19T21:42:20.539Z,5.40
2017-12-19T21:45:05.762Z,5.40
2017-12-19T21:50:43.479Z,5.30
2017-12-19T21:53:23.826Z,5.30
2017-12-19T22:05:57.718Z,5.10
2017-12-19T22:08:37.364Z,5.10
2017-12-19T22:14:31.191Z,5.10
2017-12-19T22:17:15.040Z,5.10
2017-12-19T22:19:52.146Z,5.10
2017-12-19T22:22:33.488Z,5.10
2017-12-19T22:25:10.730Z,5.10
2017-12-19T22:27:47.868Z,5.10
2017-12-19T22:45:58.113Z,5.20
2017-12-19T22:51:32.769Z,5.30
2017-12-19T22:57:11.227Z,5.20
2017-12-19T23:05:44.975Z,5.30
2017-12-19T23:17:19.922Z,5.30
2017-12-19T23:28:35.064Z,5.30
2017-12-19T23:31:22.479Z,5.30
2017-12-19T23:34:05.230Z,5.30
2017-12-19T23:36:56.384Z,5.30
2017-12-19T23:42:23.223Z,5.40
2017-12-19T23:45:03.323Z,5.40
2017-12-19T23:53:31.199Z,5.40
2017-12-19T23:56:10.564Z,5.50
